Mill Iron, Montana
Current Conditions -  °F | °C
As of 5:51 PM on Friday 24 Oct 2014 (Local Time) from KBHK Reporting Station
Overcast Overcast  
Wind Chill: 53°   Ceiling: 10000
Heat Index: 53°   Visibility: 10mi
Dew Point: 31°   Wind: 8mph
Humidity: 43%   Direction: 240°WSW
Pressure: 30.06"   Gusts: NA
Location:  45.8804°N, 104.499°W
Report Text: KBHK 242351Z AUTO 24007KT 10SM OVC100 12/M01 A3006 RMK AO2 SLP180 T01171006 10161 20111 51010
Loading
Personal Weather Stations






























Interactive Weather Map
Tropical Storm Tracking
New forecast layout! Learn more

10-Day Weather Forecast

Advertisements
Track Severe Weather on mobile